Time;durP1;ratioP1;P1;durP2;ratioP2;P2;SDS_P1;SDS_P2;PMS_P1;PMS_P2;Temp;Humidity;BMP_temperature;BMP_pressure;BME280_temperature;BME280_humidity;BME280_pressure;Samples;Min_cycle;Max_cycle;Signal;HPM_P1;HPM_P2
2021/12/14 00:04:13;;;;;;;;;;;10.90;96.90;;;;;;4978984;28;19972;-74
2021/12/14 00:09:42;;;;;;;;;;;10.90;96.90;;;;;;4976615;28;20459;-74
2021/12/14 00:17:12;;;;;;;;;;;10.90;96.90;;;;;;4974998;28;20268;-72
2021/12/14 00:19:37;;;;;;;;;;;11.00;96.90;;;;;;4973336;28;20122;-73
2021/12/14 00:22:17;;;;;;;;;;;11.00;96.70;;;;;;4974548;28;19914;-74
2021/12/14 00:24:43;;;;;;;;;;;10.90;96.60;;;;;;4974337;28;19910;-74
2021/12/14 00:27:10;;;;;;;;;;;11.00;96.70;;;;;;4974439;28;19906;-74
2021/12/14 00:29:41;;;;;;;;;;;11.00;96.70;;;;;;4974490;28;20395;-74
2021/12/14 00:32:10;;;;;;;;;;;11.00;96.70;;;;;;4974020;28;19922;-73
2021/12/14 00:34:40;;;;;;;;;;;10.90;96.70;;;;;;4973823;28;20279;-74
2021/12/14 00:37:07;;;;;;;;;;;10.90;96.70;;;;;;4974265;28;19914;-74
2021/12/14 00:39:32;;;;;;;;;;;10.90;96.60;;;;;;4973723;28;20285;-74
2021/12/14 00:41:58;;;;;;;;;;;11.00;96.70;;;;;;4974304;28;19906;-74
2021/12/14 00:44:24;;;;;;;;;;;10.90;96.50;;;;;;4973993;28;19910;-74
2021/12/14 00:46:49;;;;;;;;;;;11.00;96.60;;;;;;4972110;28;19910;-73
2021/12/14 00:49:15;;;;;;;;;;;11.00;96.40;;;;;;4973803;28;19956;-74
2021/12/14 00:51:41;;;;;;;;;;;11.00;96.40;;;;;;4973706;28;19918;-74
2021/12/14 00:54:12;;;;;;;;;;;10.90;96.30;;;;;;4973716;28;20008;-75
2021/12/14 00:56:38;;;;;;;;;;;10.90;96.40;;;;;;4974375;28;20318;-74
2021/12/14 00:59:04;;;;;;;;;;;11.00;96.40;;;;;;4973605;28;19941;-73
2021/12/14 01:01:32;;;;;;;;;;;10.90;96.30;;;;;;4973513;28;20327;-75
2021/12/14 01:03:59;;;;;;;;;;;10.90;96.40;;;;;;4973614;28;20004;-74
2021/12/14 01:06:27;;;;;;;;;;;10.90;96.30;;;;;;4973744;28;19910;-74
2021/12/14 01:08:53;;;;;;;;;;;10.90;96.30;;;;;;4973885;28;20362;-75
2021/12/14 01:11:22;;;;;;;;;;;10.90;96.30;;;;;;4973371;28;19914;-74
2021/12/14 01:13:56;;;;;;;;;;;10.90;96.20;;;;;;4973210;28;19997;-75
2021/12/14 01:16:37;;;;;;;;;;;10.90;96.20;;;;;;4973092;28;20402;-74
2021/12/14 01:19:13;;;;;;;;;;;10.80;96.20;;;;;;4972145;28;19914;-74
2021/12/14 01:22:37;;;;;;;;;;;10.80;96.20;;;;;;4973616;28;19910;-75
2021/12/14 01:27:10;;;;;;;;;;;10.80;96.10;;;;;;4973430;28;19910;-75
2021/12/14 01:29:36;;;;;;;;;;;10.80;96.10;;;;;;4973948;28;19949;-75
2021/12/14 01:32:03;;;;;;;;;;;10.90;96.10;;;;;;4973174;28;19929;-75
2021/12/14 01:34:31;;;;;;;;;;;10.80;95.90;;;;;;4972944;28;19920;-75
2021/12/14 01:36:59;;;;;;;;;;;10.80;95.90;;;;;;4973393;28;19910;-74
2021/12/14 01:42:06;;;;;;;;;;;10.80;96.00;;;;;;4973408;28;19916;-75
2021/12/14 01:44:35;;;;;;;;;;;10.80;96.00;;;;;;4973347;28;19945;-74
2021/12/14 01:47:06;;;;;;;;;;;10.80;95.90;;;;;;4972852;28;20297;-74
2021/12/14 01:49:32;;;;;;;;;;;10.80;95.90;;;;;;4973003;28;19921;-74
2021/12/14 01:51:59;;;;;;;;;;;10.80;95.90;;;;;;4972626;28;19918;-73
2021/12/14 01:54:27;;;;;;;;;;;10.70;95.80;;;;;;4972589;28;20240;-75
2021/12/14 01:56:53;;;;;;;;;;;10.70;95.80;;;;;;4972225;28;19906;-74
2021/12/14 01:59:23;;;;;;;;;;;10.70;95.80;;;;;;4971640;28;19910;-74
2021/12/14 02:02:41;;;;;;;;;;;10.70;95.90;;;;;;4972711;28;19910;-75
2021/12/14 02:04:39;;;;;;;;;;;10.70;95.90;;;;;;4971844;28;20323;-75
2021/12/14 02:07:06;;;;;;;;;;;10.60;95.80;;;;;;4971458;28;19918;-74
2021/12/14 02:09:32;;;;;;;;;;;10.70;95.90;;;;;;4972203;28;19914;-75
2021/12/14 02:11:59;;;;;;;;;;;10.70;95.80;;;;;;4972726;28;20011;-75
2021/12/14 02:14:25;;;;;;;;;;;10.70;95.90;;;;;;4971050;28;19929;-75
2021/12/14 02:16:54;;;;;;;;;;;10.70;95.90;;;;;;4972567;28;19914;-75
2021/12/14 02:19:19;;;;;;;;;;;10.70;95.90;;;;;;4972364;28;20307;-76
2021/12/14 02:21:46;;;;;;;;;;;10.70;95.90;;;;;;4972096;28;19942;-74
2021/12/14 02:24:12;;;;;;;;;;;10.70;95.80;;;;;;4972108;28;19910;-74
2021/12/14 02:26:40;;;;;;;;;;;10.70;95.80;;;;;;4972455;28;20354;-74
2021/12/14 02:29:08;;;;;;;;;;;10.70;95.80;;;;;;4972085;28;20178;-74
2021/12/14 02:31:35;;;;;;;;;;;10.70;95.80;;;;;;4972070;28;19918;-75
2021/12/14 02:34:02;;;;;;;;;;;10.70;95.90;;;;;;4970972;28;19914;-76
2021/12/14 02:36:33;;;;;;;;;;;10.70;95.80;;;;;;4971778;28;20342;-76
2021/12/14 02:39:09;;;;;;;;;;;10.70;95.90;;;;;;4971221;28;19948;-75
2021/12/14 02:41:43;;;;;;;;;;;10.60;95.80;;;;;;4972382;28;19921;-74
2021/12/14 02:44:09;;;;;;;;;;;10.60;95.90;;;;;;4970660;28;20174;-75
2021/12/14 02:46:36;;;;;;;;;;;10.60;95.80;;;;;;4971992;28;19994;-76
2021/12/14 02:49:03;;;;;;;;;;;10.60;95.90;;;;;;4971743;28;19960;-75
2021/12/14 02:51:30;;;;;;;;;;;10.60;95.90;;;;;;4971314;28;19913;-76
2021/12/14 02:54:07;;;;;;;;;;;10.60;95.90;;;;;;4972195;28;19920;-74
2021/12/14 02:56:34;;;;;;;;;;;10.60;95.90;;;;;;4972048;28;19922;-75
2021/12/14 02:59:01;;;;;;;;;;;10.60;95.80;;;;;;4970098;28;19922;-74
2021/12/14 03:01:27;;;;;;;;;;;10.60;95.90;;;;;;4971601;28;20335;-75
2021/12/14 03:03:58;;;;;;;;;;;10.60;95.70;;;;;;4971746;28;19953;-74
2021/12/14 03:06:25;;;;;;;;;;;10.60;95.70;;;;;;4971531;28;20328;-74
2021/12/14 03:09:07;;;;;;;;;;;10.60;95.70;;;;;;4971885;28;19917;-74
2021/12/14 03:11:33;;;;;;;;;;;10.50;95.70;;;;;;4970169;28;20018;-73
2021/12/14 03:13:59;;;;;;;;;;;10.60;95.80;;;;;;4971152;28;19930;-75
2021/12/14 03:16:27;;;;;;;;;;;10.50;95.70;;;;;;4971283;28;19921;-75
2021/12/14 03:18:54;;;;;;;;;;;10.50;95.70;;;;;;4971392;28;20311;-74
2021/12/14 03:21:22;;;;;;;;;;;10.50;95.70;;;;;;4970168;28;20248;-74
2021/12/14 03:23:49;;;;;;;;;;;10.60;95.80;;;;;;4970748;28;20359;-75
2021/12/14 03:26:16;;;;;;;;;;;10.50;95.70;;;;;;4971357;28;19973;-74
2021/12/14 03:28:45;;;;;;;;;;;10.60;95.80;;;;;;4971060;28;19937;-74
2021/12/14 03:31:11;;;;;;;;;;;10.50;95.70;;;;;;4971243;28;20319;-74
2021/12/14 03:33:39;;;;;;;;;;;10.50;95.60;;;;;;4971271;28;19921;-74
2021/12/14 03:36:10;;;;;;;;;;;10.50;95.50;;;;;;4971105;28;19917;-74
2021/12/14 03:38:36;;;;;;;;;;;10.50;95.60;;;;;;4970748;28;19937;-75
2021/12/14 03:41:07;;;;;;;;;;;10.50;95.50;;;;;;4971167;28;19918;-75
2021/12/14 03:43:34;;;;;;;;;;;10.50;95.50;;;;;;4971160;28;19965;-75
2021/12/14 03:45:59;;;;;;;;;;;10.50;95.60;;;;;;4971052;28;20009;-75
2021/12/14 03:48:27;;;;;;;;;;;10.60;95.50;;;;;;4970812;28;19996;-75
2021/12/14 03:50:53;;;;;;;;;;;10.60;95.40;;;;;;4971508;28;19910;-75
2021/12/14 03:53:20;;;;;;;;;;;10.50;95.30;;;;;;4970990;28;19921;-74
2021/12/14 03:55:47;;;;;;;;;;;10.50;95.50;;;;;;4970926;28;19914;-74
2021/12/14 03:58:14;;;;;;;;;;;10.50;95.40;;;;;;4970827;28;19941;-75
2021/12/14 04:00:45;;;;;;;;;;;10.60;95.40;;;;;;4971008;28;19910;-75
2021/12/14 04:03:14;;;;;;;;;;;10.60;95.40;;;;;;4971260;28;19917;-74
2021/12/14 04:05:41;;;;;;;;;;;10.50;95.40;;;;;;4971203;28;19898;-74
2021/12/14 04:08:07;;;;;;;;;;;10.60;95.40;;;;;;4971146;28;19910;-74
2021/12/14 04:10:34;;;;;;;;;;;10.50;95.40;;;;;;4970545;28;19973;-74
2021/12/14 04:13:00;;;;;;;;;;;10.50;95.40;;;;;;4970891;28;20001;-74
2021/12/14 04:15:25;;;;;;;;;;;10.40;95.40;;;;;;4970716;28;20020;-74
2021/12/14 04:17:51;;;;;;;;;;;10.40;95.50;;;;;;4970264;28;19920;-74
2021/12/14 04:20:29;;;;;;;;;;;10.40;95.60;;;;;;4971434;28;19910;-75
2021/12/14 04:22:55;;;;;;;;;;;10.50;95.60;;;;;;4972366;28;19936;-74
2021/12/14 04:25:23;;;;;;;;;;;10.60;95.60;;;;;;4973190;28;19925;-74
2021/12/14 04:27:50;;;;;;;;;;;10.50;95.50;;;;;;4974171;28;20331;-74
2021/12/14 04:30:17;;;;;;;;;;;10.50;95.60;;;;;;4974213;28;20340;-73
2021/12/14 04:32:49;;;;;;;;;;;10.50;95.70;;;;;;4974704;28;19906;-74
2021/12/14 04:35:15;;;;;;;;;;;10.50;95.60;;;;;;4974105;28;19918;-74
2021/12/14 04:37:42;;;;;;;;;;;10.40;95.60;;;;;;4974030;28;19920;-75
2021/12/14 04:40:21;;;;;;;;;;;10.40;95.70;;;;;;4974063;28;19914;-75
2021/12/14 04:53:55;;;;;;;;;;;10.40;95.60;;;;;;4974436;28;19913;-74
2021/12/14 04:56:23;;;;;;;;;;;10.50;95.70;;;;;;4973805;28;19937;-74
2021/12/14 04:58:53;;;;;;;;;;;10.40;95.60;;;;;;4973677;28;19922;-74
2021/12/14 05:01:19;;;;;;;;;;;10.50;95.60;;;;;;4973672;28;20248;-75
2021/12/14 05:03:47;;;;;;;;;;;10.40;95.60;;;;;;4973799;28;19961;-74
2021/12/14 05:06:22;;;;;;;;;;;10.40;95.60;;;;;;4973454;28;19917;-74
2021/12/14 05:11:45;;;;;;;;;;;10.50;95.50;;;;;;4973331;28;19976;-74
2021/12/14 05:14:11;;;;;;;;;;;10.50;95.60;;;;;;4973376;28;19961;-74
2021/12/14 05:16:37;;;;;;;;;;;10.50;95.60;;;;;;4973316;28;19914;-74
2021/12/14 05:19:03;;;;;;;;;;;10.50;95.60;;;;;;4973277;28;20235;-74
2021/12/14 05:21:34;;;;;;;;;;;10.50;95.60;;;;;;4973129;28;20343;-74
2021/12/14 05:24:01;;;;;;;;;;;10.50;95.50;;;;;;4973612;28;19906;-75
2021/12/14 05:26:27;;;;;;;;;;;10.50;95.40;;;;;;4973314;28;20004;-74
2021/12/14 05:28:53;;;;;;;;;;;10.50;95.40;;;;;;4971689;28;19910;-74
2021/12/14 05:31:18;;;;;;;;;;;10.50;95.40;;;;;;4973050;28;19925;-75
2021/12/14 05:33:44;;;;;;;;;;;10.50;95.40;;;;;;4972807;28;19954;-74
2021/12/14 05:36:13;;;;;;;;;;;10.60;95.40;;;;;;4973133;28;19906;-74
2021/12/14 05:43:56;;;;;;;;;;;10.60;95.30;;;;;;4949443;28;19910;-73
2021/12/14 05:46:22;;;;;;;;;;;10.50;95.20;;;;;;4972608;28;19910;-77
2021/12/14 05:48:47;;;;;;;;;;;10.50;95.30;;;;;;4972696;28;19944;-74
2021/12/14 05:51:13;;;;;;;;;;;10.60;95.30;;;;;;4972784;28;19910;-75
2021/12/14 05:53:40;;;;;;;;;;;10.50;95.30;;;;;;4973020;28;19910;-75
2021/12/14 05:56:11;;;;;;;;;;;10.50;95.20;;;;;;4987687;28;19921;-74
2021/12/14 05:58:37;;;;;;;;;;;10.50;95.20;;;;;;4972789;28;19910;-74
2021/12/14 06:01:05;;;;;;;;;;;10.60;95.40;;;;;;4972457;28;19910;-74
2021/12/14 06:03:32;;;;;;;;;;;10.50;95.30;;;;;;4971354;28;20002;-75
2021/12/14 06:05:59;;;;;;;;;;;10.60;95.20;;;;;;4971340;28;19910;-75
2021/12/14 06:08:26;;;;;;;;;;;10.50;95.20;;;;;;4972535;28;19916;-76
2021/12/14 06:10:52;;;;;;;;;;;10.50;95.50;;;;;;4972150;28;19992;-76
2021/12/14 06:13:19;;;;;;;;;;;10.50;95.40;;;;;;4972257;28;20340;-74
2021/12/14 06:15:44;;;;;;;;;;;10.60;95.40;;;;;;4972406;28;19968;-76
2021/12/14 06:18:10;;;;;;;;;;;10.60;95.30;;;;;;4972085;28;19910;-75
2021/12/14 06:20:36;;;;;;;;;;;10.60;95.30;;;;;;4971692;28;20268;-75
2021/12/14 06:23:02;;;;;;;;;;;10.60;95.40;;;;;;4972394;28;19914;-75
2021/12/14 06:25:28;;;;;;;;;;;10.70;95.30;;;;;;4972415;28;20001;-76
2021/12/14 06:27:59;;;;;;;;;;;10.60;95.20;;;;;;4971193;28;19910;-76
2021/12/14 06:30:27;;;;;;;;;;;10.60;95.30;;;;;;4972177;28;19984;-74
2021/12/14 06:32:57;;;;;;;;;;;10.60;95.40;;;;;;4972770;28;19968;-75
2021/12/14 06:35:29;;;;;;;;;;;10.70;95.40;;;;;;4972138;28;19978;-78
2021/12/14 06:40:31;;;;;;;;;;;10.60;95.20;;;;;;4972550;28;19922;-76
2021/12/14 06:42:59;;;;;;;;;;;10.60;95.40;;;;;;4972186;28;20005;-76
2021/12/14 06:45:26;;;;;;;;;;;10.50;95.30;;;;;;4971553;28;19910;-76
2021/12/14 06:47:53;;;;;;;;;;;10.60;95.40;;;;;;4972385;28;19939;-76
2021/12/14 06:50:32;;;;;;;;;;;10.60;95.40;;;;;;4971789;28;19916;-76
2021/12/14 06:53:02;;;;;;;;;;;10.60;95.40;;;;;;4972112;28;19924;-76
2021/12/14 06:55:27;;;;;;;;;;;10.60;95.70;;;;;;4971589;28;19910;-76
2021/12/14 06:58:04;;;;;;;;;;;10.70;95.50;;;;;;4972194;28;20050;-78
2021/12/14 07:00:29;;;;;;;;;;;10.70;95.40;;;;;;4972139;28;20218;-78
2021/12/14 07:02:56;;;;;;;;;;;10.80;95.80;;;;;;4972211;28;19912;-78
2021/12/14 07:05:24;;;;;;;;;;;10.70;95.40;;;;;;4970328;28;20316;-83
2021/12/14 07:07:49;;;;;;;;;;;10.60;95.30;;;;;;4956592;28;19910;-77
2021/12/14 07:10:15;;;;;;;;;;;10.70;95.50;;;;;;4950541;28;19921;-79
2021/12/14 07:12:41;;;;;;;;;;;10.70;95.50;;;;;;4951612;28;19918;-80
2021/12/14 07:15:18;;;;;;;;;;;10.70;95.40;;;;;;4950984;28;19918;-79
2021/12/14 07:17:48;;;;;;;;;;;10.70;95.50;;;;;;4967519;28;20332;-79
2021/12/14 07:20:21;;;;;;;;;;;10.70;95.60;;;;;;4966517;28;19910;-81
2021/12/14 07:22:55;;;;;;;;;;;10.60;95.60;;;;;;4951704;28;19957;-80
2021/12/14 07:25:29;;;;;;;;;;;10.70;95.80;;;;;;4966338;28;19960;-81
2021/12/14 07:27:59;;;;;;;;;;;10.70;95.70;;;;;;4951846;28;19910;-79
2021/12/14 07:30:31;;;;;;;;;;;10.70;95.80;;;;;;4952062;28;19911;-81
2021/12/14 07:33:05;;;;;;;;;;;10.70;95.60;;;;;;4952219;29;19973;-81
2021/12/14 07:35:35;;;;;;;;;;;10.80;95.70;;;;;;4952357;29;19936;-77
2021/12/14 07:38:16;;;;;;;;;;;10.70;95.70;;;;;;4951474;28;19921;-77
2021/12/14 07:40:43;;;;;;;;;;;10.70;95.70;;;;;;4951751;28;19993;-77
2021/12/14 07:43:21;;;;;;;;;;;10.60;95.90;;;;;;4951722;28;19914;-79
2021/12/14 07:45:47;;;;;;;;;;;10.60;96.00;;;;;;4950295;28;20304;-77
2021/12/14 07:48:13;;;;;;;;;;;10.60;96.00;;;;;;4951511;28;20412;-80
2021/12/14 07:50:41;;;;;;;;;;;10.60;96.10;;;;;;4951673;29;20372;-79
2021/12/14 07:53:06;;;;;;;;;;;10.60;96.10;;;;;;4951448;28;19945;-77
2021/12/14 07:55:36;;;;;;;;;;;10.60;96.10;;;;;;4951495;28;19950;-77
2021/12/14 07:58:02;;;;;;;;;;;10.70;96.20;;;;;;4952310;28;19915;-78
2021/12/14 08:00:31;;;;;;;;;;;10.60;96.20;;;;;;4954144;28;19910;-77
2021/12/14 08:03:00;;;;;;;;;;;10.60;96.30;;;;;;4970506;28;20443;-74
2021/12/14 08:05:34;;;;;;;;;;;10.60;96.30;;;;;;4955050;28;19914;-75
2021/12/14 08:08:08;;;;;;;;;;;10.60;96.40;;;;;;4969811;28;19910;-76
2021/12/14 08:10:39;;;;;;;;;;;10.60;96.50;;;;;;4954770;28;20346;-79
2021/12/14 08:13:13;;;;;;;;;;;10.60;96.50;;;;;;4955297;28;19918;-80
2021/12/14 08:15:40;;;;;;;;;;;10.50;96.70;;;;;;4954895;28;20386;-77
2021/12/14 08:18:11;;;;;;;;;;;10.60;96.70;;;;;;4954941;28;19910;-77
2021/12/14 08:20:43;;;;;;;;;;;10.50;96.80;;;;;;4955392;29;20351;-77
2021/12/14 08:23:11;;;;;;;;;;;10.60;96.80;;;;;;4955049;28;19911;-77
2021/12/14 08:25:39;;;;;;;;;;;10.60;96.80;;;;;;4955177;28;19910;-78
2021/12/14 08:28:06;;;;;;;;;;;10.50;96.90;;;;;;4955112;28;20142;-78
2021/12/14 08:30:33;;;;;;;;;;;10.60;97.00;;;;;;4954488;28;19962;-80
2021/12/14 08:32:58;;;;;;;;;;;10.50;97.00;;;;;;4955330;29;19993;-72
2021/12/14 08:35:24;;;;;;;;;;;10.60;97.10;;;;;;4954877;28;20005;-84
2021/12/14 08:37:54;;;;;;;;;;;10.70;97.10;;;;;;4955206;28;19922;-82
2021/12/14 08:40:24;;;;;;;;;;;10.70;96.90;;;;;;4954789;28;19918;-79
2021/12/14 08:43:20;;;;;;;;;;;10.70;97.00;;;;;;4969730;28;19960;-80
2021/12/14 08:45:40;;;;;;;;;;;10.70;97.10;;;;;;4954484;28;19950;-81
2021/12/14 08:48:13;;;;;;;;;;;10.70;97.00;;;;;;4954181;28;19936;-79
2021/12/14 08:50:44;;;;;;;;;;;10.70;97.10;;;;;;4954461;28;19902;-80
2021/12/14 08:53:11;;;;;;;;;;;10.70;97.00;;;;;;4954449;28;20326;-81
2021/12/14 08:55:38;;;;;;;;;;;10.70;97.00;;;;;;4954615;28;19922;-73
2021/12/14 08:58:04;;;;;;;;;;;10.70;97.20;;;;;;4953105;28;20102;-74
2021/12/14 09:00:38;;;;;;;;;;;10.70;97.30;;;;;;4953886;28;20008;-80
2021/12/14 09:03:05;;;;;;;;;;;10.70;97.20;;;;;;4953924;28;19953;-75
2021/12/14 09:05:40;;;;;;;;;;;10.70;97.20;;;;;;4954525;29;19902;-77
2021/12/14 09:08:06;;;;;;;;;;;10.80;97.20;;;;;;4953387;28;20364;-74
2021/12/14 09:10:33;;;;;;;;;;;10.80;97.10;;;;;;4953892;28;19997;-79
2021/12/14 09:13:01;;;;;;;;;;;10.80;97.00;;;;;;4953926;28;19914;-79
2021/12/14 09:15:39;;;;;;;;;;;10.90;97.00;;;;;;4953601;28;19947;-80
2021/12/14 09:18:05;;;;;;;;;;;10.90;96.90;;;;;;4953893;28;20017;-80
2021/12/14 09:20:33;;;;;;;;;;;11.00;96.90;;;;;;4954911;29;19993;-80
2021/12/14 09:23:12;;;;;;;;;;;10.70;96.80;;;;;;4953729;28;19914;-79
2021/12/14 09:25:39;;;;;;;;;;;10.70;97.00;;;;;;4954036;28;19918;-82
2021/12/14 09:28:05;;;;;;;;;;;10.80;96.90;;;;;;4953780;28;19969;-79
2021/12/14 09:30:33;;;;;;;;;;;11.00;96.70;;;;;;4953697;28;19914;-78
2021/12/14 09:33:00;;;;;;;;;;;11.20;96.70;;;;;;4969278;28;19917;-78
2021/12/14 09:35:29;;;;;;;;;;;11.10;96.50;;;;;;4954036;28;19910;-78
2021/12/14 09:37:56;;;;;;;;;;;11.10;96.40;;;;;;4953468;28;19911;-78
2021/12/14 09:40:31;;;;;;;;;;;11.20;96.40;;;;;;4953329;28;19966;-76
2021/12/14 09:42:56;;;;;;;;;;;11.30;96.30;;;;;;4953364;28;19934;-78
2021/12/14 09:45:25;;;;;;;;;;;11.30;96.20;;;;;;4953024;28;19918;-80
2021/12/14 09:47:50;;;;;;;;;;;11.20;96.20;;;;;;4953600;29;19918;-80
2021/12/14 09:50:19;;;;;;;;;;;11.30;96.20;;;;;;4968260;28;19914;-78
2021/12/14 09:52:47;;;;;;;;;;;11.40;96.20;;;;;;4953326;28;19925;-79
2021/12/14 09:55:15;;;;;;;;;;;11.40;96.20;;;;;;4953028;28;19917;-78
2021/12/14 09:57:43;;;;;;;;;;;11.40;96.10;;;;;;4953261;28;20002;-80
2021/12/14 10:00:15;;;;;;;;;;;11.40;96.10;;;;;;4953317;28;19917;-80
2021/12/14 10:02:42;;;;;;;;;;;11.50;96.10;;;;;;4953495;29;19902;-77
2021/12/14 10:05:43;;;;;;;;;;;11.50;95.80;;;;;;4951824;29;20323;-76
2021/12/14 10:08:17;;;;;;;;;;;11.60;95.90;;;;;;4950389;28;19989;-76
2021/12/14 10:10:44;;;;;;;;;;;11.60;95.90;;;;;;4952174;28;19914;-76
2021/12/14 10:13:10;;;;;;;;;;;11.60;95.90;;;;;;4951678;28;20365;-76
2021/12/14 10:15:38;;;;;;;;;;;11.60;95.60;;;;;;4967427;28;19926;-73
2021/12/14 10:18:12;;;;;;;;;;;11.70;95.80;;;;;;4953032;28;19921;-83
2021/12/14 10:20:41;;;;;;;;;;;11.90;96.10;;;;;;4952654;28;20151;-77
2021/12/14 10:23:07;;;;;;;;;;;12.00;96.70;;;;;;4953000;28;19922;-80
2021/12/14 10:25:34;;;;;;;;;;;12.00;96.00;;;;;;4952979;28;19990;-82
2021/12/14 10:28:00;;;;;;;;;;;12.20;96.10;;;;;;4952934;28;19915;-80
2021/12/14 10:30:31;;;;;;;;;;;12.20;96.00;;;;;;4951972;28;20018;-85
2021/12/14 10:32:59;;;;;;;;;;;12.20;95.80;;;;;;4954269;29;20376;-83
2021/12/14 10:35:30;;;;;;;;;;;12.30;95.60;;;;;;4955967;28;19967;-84
2021/12/14 10:38:00;;;;;;;;;;;12.30;95.60;;;;;;4954347;28;19917;-84
2021/12/14 10:43:16;;;;;;;;;;;12.30;95.50;;;;;;4951113;28;19917;-83
2021/12/14 10:45:46;;;;;;;;;;;12.40;95.30;;;;;;4953072;28;19972;-88
2021/12/14 10:48:11;;;;;;;;;;;12.40;95.20;;;;;;4969286;28;19910;-85
2021/12/14 10:50:38;;;;;;;;;;;12.30;95.30;;;;;;4953330;29;19902;-84
2021/12/14 10:53:06;;;;;;;;;;;12.40;95.50;;;;;;4952960;28;20403;-88
2021/12/14 10:55:35;;;;;;;;;;;12.50;95.30;;;;;;4952574;28;19914;-83
2021/12/14 10:58:00;;;;;;;;;;;12.40;95.10;;;;;;4967529;28;19910;-85
2021/12/14 11:00:30;;;;;;;;;;;12.50;95.10;;;;;;4952903;28;20288;-87
2021/12/14 11:03:09;;;;;;;;;;;12.50;95.20;;;;;;4953400;29;19906;-78
2021/12/14 11:05:36;;;;;;;;;;;12.40;94.80;;;;;;4952253;29;19911;-79
2021/12/14 11:08:02;;;;;;;;;;;12.30;95.30;;;;;;4951800;28;19921;-78
2021/12/14 11:10:33;;;;;;;;;;;12.20;95.30;;;;;;4950550;29;19911;-81
2021/12/14 11:13:02;;;;;;;;;;;12.10;95.20;;;;;;4951786;28;19918;-79
2021/12/14 11:15:30;;;;;;;;;;;12.10;95.10;;;;;;4950379;29;19922;-79
2021/12/14 11:18:10;;;;;;;;;;;12.00;95.30;;;;;;4952493;29;19928;-77
2021/12/14 11:20:44;;;;;;;;;;;12.00;95.40;;;;;;4951907;29;19918;-79
2021/12/14 11:23:16;;;;;;;;;;;12.00;95.40;;;;;;4951740;28;19954;-81
2021/12/14 11:25:49;;;;;;;;;;;11.90;95.60;;;;;;4951724;28;19988;-77
2021/12/14 11:28:19;;;;;;;;;;;11.80;95.60;;;;;;4951514;28;19977;-79
2021/12/14 11:30:53;;;;;;;;;;;11.80;95.70;;;;;;4951238;28;19960;-80
2021/12/14 11:33:26;;;;;;;;;;;11.80;95.80;;;;;;4950730;28;20052;-77
2021/12/14 11:35:54;;;;;;;;;;;11.70;95.70;;;;;;4952508;29;20186;-78
2021/12/14 11:38:43;;;;;;;;;;;11.80;96.00;;;;;;4951495;28;19911;-78
2021/12/14 11:41:23;;;;;;;;;;;11.80;95.80;;;;;;4963492;28;19915;-80
2021/12/14 11:43:52;;;;;;;;;;;11.70;96.00;;;;;;4951582;28;19910;-77
2021/12/14 11:46:17;;;;;;;;;;;11.70;96.10;;;;;;4951908;28;20247;-84
2021/12/14 11:48:43;;;;;;;;;;;11.80;96.10;;;;;;4951731;28;20013;-83
2021/12/14 11:51:09;;;;;;;;;;;11.80;96.00;;;;;;4951789;28;19914;-83
2021/12/14 11:53:34;;;;;;;;;;;11.80;96.10;;;;;;4952300;28;20244;-85
2021/12/14 11:56:09;;;;;;;;;;;11.70;96.10;;;;;;4967061;28;20344;-86
2021/12/14 11:58:40;;;;;;;;;;;11.70;96.10;;;;;;4951683;28;20315;-77
2021/12/14 12:01:24;;;;;;;;;;;11.70;96.20;;;;;;4966202;28;19916;-77
2021/12/14 12:03:57;;;;;;;;;;;11.70;96.60;;;;;;4951489;28;20065;-76
2021/12/14 12:09:29;;;;;;;;;;;11.70;96.30;;;;;;4952416;28;19914;-82
2021/12/14 12:12:04;;;;;;;;;;;11.70;96.30;;;;;;4952623;28;19906;-81
2021/12/14 12:14:32;;;;;;;;;;;11.70;96.20;;;;;;4951743;28;20364;-84
2021/12/14 12:17:07;;;;;;;;;;;11.70;96.30;;;;;;4951417;28;19969;-88
2021/12/14 12:19:33;;;;;;;;;;;11.80;96.20;;;;;;4951397;28;19918;-85
2021/12/14 12:22:04;;;;;;;;;;;11.60;96.20;;;;;;4951826;28;19914;-83
2021/12/14 12:24:30;;;;;;;;;;;11.70;96.30;;;;;;4952249;28;19922;-85
2021/12/14 12:27:14;;;;;;;;;;;11.60;96.40;;;;;;4952489;29;19941;-83
2021/12/14 12:29:42;;;;;;;;;;;11.70;96.40;;;;;;4951762;29;19921;-85
2021/12/14 12:32:17;;;;;;;;;;;11.70;96.60;;;;;;4951516;28;19997;-83
2021/12/14 12:34:48;;;;;;;;;;;11.70;96.50;;;;;;4966544;28;20324;-84
2021/12/14 12:37:14;;;;;;;;;;;11.60;96.40;;;;;;4950412;29;20052;-83
2021/12/14 12:39:46;;;;;;;;;;;11.70;96.60;;;;;;4951618;28;19911;-81
2021/12/14 12:42:11;;;;;;;;;;;11.80;96.40;;;;;;4951617;28;20255;-84
2021/12/14 12:44:39;;;;;;;;;;;11.90;96.40;;;;;;4954820;29;19906;-81
2021/12/14 12:47:07;;;;;;;;;;;11.80;96.30;;;;;;4955037;28;20138;-81
2021/12/14 12:49:37;;;;;;;;;;;11.80;96.40;;;;;;4954391;28;20213;-81
2021/12/14 12:52:06;;;;;;;;;;;11.70;96.50;;;;;;4969453;28;20005;-82
2021/12/14 12:54:35;;;;;;;;;;;11.80;96.50;;;;;;4969509;28;20346;-83
2021/12/14 12:57:07;;;;;;;;;;;11.80;96.50;;;;;;4970118;28;19910;-82
2021/12/14 12:59:42;;;;;;;;;;;11.80;96.50;;;;;;4950451;29;19910;-83
2021/12/14 13:02:12;;;;;;;;;;;11.70;96.50;;;;;;4951812;28;19914;-86
2021/12/14 13:04:42;;;;;;;;;;;11.50;96.80;;;;;;4954452;28;19937;-84
2021/12/14 13:07:09;;;;;;;;;;;11.40;97.00;;;;;;4969461;28;19914;-84
2021/12/14 13:09:53;;;;;;;;;;;11.50;97.10;;;;;;4953181;28;19938;-85
2021/12/14 13:12:38;;;;;;;;;;;11.60;97.00;;;;;;4954308;28;19937;-83
2021/12/14 13:15:03;;;;;;;;;;;11.50;97.30;;;;;;4954296;28;19993;-85
2021/12/14 13:17:29;;;;;;;;;;;11.40;98.00;;;;;;4954951;29;19950;-80
2021/12/14 13:20:01;;;;;;;;;;;11.40;98.20;;;;;;4954668;28;19997;-83
2021/12/14 13:22:27;;;;;;;;;;;11.40;98.30;;;;;;4969273;28;19965;-83
2021/12/14 13:24:52;;;;;;;;;;;11.50;98.30;;;;;;4954046;28;19910;-81
2021/12/14 13:27:23;;;;;;;;;;;11.50;98.30;;;;;;4952401;28;19910;-79
2021/12/14 13:29:57;;;;;;;;;;;11.40;98.30;;;;;;4954123;29;19910;-81
2021/12/14 13:32:33;;;;;;;;;;;11.40;98.50;;;;;;4953574;28;19926;-82
2021/12/14 13:35:19;;;;;;;;;;;11.50;98.40;;;;;;4953813;28;19918;-84
2021/12/14 13:37:47;;;;;;;;;;;11.50;98.50;;;;;;4953659;28;20299;-84
2021/12/14 13:40:19;;;;;;;;;;;11.30;98.40;;;;;;4968299;28;19911;-78
2021/12/14 13:42:50;;;;;;;;;;;11.40;98.50;;;;;;4968402;28;20320;-78
2021/12/14 13:45:21;;;;;;;;;;;11.40;98.40;;;;;;4953655;28;19918;-83
2021/12/14 13:47:48;;;;;;;;;;;11.50;98.60;;;;;;4954103;28;19903;-84
2021/12/14 13:50:17;;;;;;;;;;;11.40;98.60;;;;;;4968891;28;20283;-81
2021/12/14 13:52:42;;;;;;;;;;;11.30;98.80;;;;;;4953468;28;19914;-85
2021/12/14 13:55:15;;;;;;;;;;;11.30;98.70;;;;;;4953510;28;19919;-80
2021/12/14 13:57:42;;;;;;;;;;;11.40;98.80;;;;;;4953657;28;20375;-85
2021/12/14 14:00:11;;;;;;;;;;;11.40;98.60;;;;;;4953696;28;19907;-85
2021/12/14 14:02:37;;;;;;;;;;;11.50;98.50;;;;;;4969683;28;19910;-88
2021/12/14 14:05:05;;;;;;;;;;;11.50;98.50;;;;;;4969301;28;19985;-86
2021/12/14 14:07:30;;;;;;;;;;;11.50;98.30;;;;;;4968820;28;20294;-89
2021/12/14 14:09:56;;;;;;;;;;;11.60;98.30;;;;;;4954362;28;19915;-86
2021/12/14 14:12:23;;;;;;;;;;;11.60;98.20;;;;;;4952024;28;19910;-81
2021/12/14 14:14:50;;;;;;;;;;;11.50;98.40;;;;;;4954104;29;19973;-86
2021/12/14 14:17:21;;;;;;;;;;;11.30;98.40;;;;;;4953774;28;19921;-80
2021/12/14 14:19:49;;;;;;;;;;;11.20;98.60;;;;;;4953285;28;20029;-82
2021/12/14 14:22:16;;;;;;;;;;;11.30;98.50;;;;;;4952914;28;19973;-80
2021/12/14 14:24:43;;;;;;;;;;;11.30;98.40;;;;;;4967786;28;20298;-81
2021/12/14 14:27:31;;;;;;;;;;;11.30;98.40;;;;;;4967536;28;19989;-84
2021/12/14 14:29:57;;;;;;;;;;;11.30;98.40;;;;;;4955539;28;19906;-82
2021/12/14 14:32:31;;;;;;;;;;;11.30;98.60;;;;;;4954406;28;19914;-85
2021/12/14 14:35:00;;;;;;;;;;;11.40;98.50;;;;;;4969181;28;19981;-84
2021/12/14 14:37:27;;;;;;;;;;;11.40;98.70;;;;;;4969109;28;20399;-85
2021/12/14 14:39:54;;;;;;;;;;;11.30;98.60;;;;;;4969420;28;19953;-84
2021/12/14 14:42:28;;;;;;;;;;;11.30;98.70;;;;;;4954106;28;20009;-83
2021/12/14 14:44:56;;;;;;;;;;;11.40;98.70;;;;;;4970450;28;19906;-84
2021/12/14 14:47:25;;;;;;;;;;;11.30;98.70;;;;;;4957292;28;20040;-89
2021/12/14 14:49:56;;;;;;;;;;;11.40;98.70;;;;;;4967265;28;19998;-78
2021/12/14 14:52:23;;;;;;;;;;;11.40;98.60;;;;;;4968192;28;19978;-77
2021/12/14 14:54:51;;;;;;;;;;;11.50;98.50;;;;;;4967880;28;19969;-77
2021/12/14 14:57:16;;;;;;;;;;;11.30;98.50;;;;;;4952859;28;19922;-78
2021/12/14 14:59:54;;;;;;;;;;;11.30;98.60;;;;;;4953286;28;19961;-76
2021/12/14 15:02:49;;;;;;;;;;;11.30;98.50;;;;;;4953388;28;19922;-85
2021/12/14 15:05:20;;;;;;;;;;;11.30;98.60;;;;;;4952774;28;19986;-82
2021/12/14 15:07:57;;;;;;;;;;;11.10;98.60;;;;;;4952922;28;19945;-83
2021/12/14 15:10:28;;;;;;;;;;;11.10;98.70;;;;;;4953017;28;20368;-85
2021/12/14 15:13:18;;;;;;;;;;;11.10;98.80;;;;;;4953053;28;19925;-85